sensor_id;sensor_type;location;lat;lon;timestamp;P1;durP1;ratioP1;P2;durP2;ratioP2
6626;SDS011;3349;49.830;8.748;2023-05-07T00:00:05;4.57;;;3.75;;
6626;SDS011;3349;49.830;8.748;2023-05-07T00:02:34;5.47;;;4.47;;
6626;SDS011;3349;49.830;8.748;2023-05-07T00:05:02;7.45;;;4.97;;
6626;SDS011;3349;49.830;8.748;2023-05-07T00:07:29;6.95;;;4.93;;
6626;SDS011;3349;49.830;8.748;2023-05-07T00:09:56;6.93;;;4.60;;
6626;SDS011;3349;49.830;8.748;2023-05-07T00:12:22;5.75;;;4.28;;
6626;SDS011;3349;49.830;8.748;2023-05-07T00:14:49;6.57;;;4.47;;
6626;SDS011;3349;49.830;8.748;2023-05-07T00:17:16;4.70;;;4.20;;
6626;SDS011;3349;49.830;8.748;2023-05-07T00:19:44;9.63;;;3.92;;
6626;SDS011;3349;49.830;8.748;2023-05-07T00:22:11;5.72;;;3.90;;
6626;SDS011;3349;49.830;8.748;2023-05-07T00:24:38;4.47;;;3.97;;
6626;SDS011;3349;49.830;8.748;2023-05-07T00:27:05;7.50;;;4.10;;
6626;SDS011;3349;49.830;8.748;2023-05-07T00:29:31;7.90;;;4.50;;
6626;SDS011;3349;49.830;8.748;2023-05-07T00:31:58;5.35;;;4.68;;
6626;SDS011;3349;49.830;8.748;2023-05-07T00:34:25;10.07;;;4.88;;
6626;SDS011;3349;49.830;8.748;2023-05-07T00:36:53;11.68;;;4.90;;
6626;SDS011;3349;49.830;8.748;2023-05-07T00:39:20;6.47;;;4.60;;
6626;SDS011;3349;49.830;8.748;2023-05-07T00:41:47;4.30;;;3.88;;
6626;SDS011;3349;49.830;8.748;2023-05-07T00:44:13;5.43;;;4.32;;
6626;SDS011;3349;49.830;8.748;2023-05-07T00:46:40;5.15;;;4.65;;
6626;SDS011;3349;49.830;8.748;2023-05-07T00:49:07;7.63;;;5.10;;
6626;SDS011;3349;49.830;8.748;2023-05-07T00:51:34;7.25;;;4.72;;
6626;SDS011;3349;49.830;8.748;2023-05-07T00:54:02;5.82;;;4.40;;
6626;SDS011;3349;49.830;8.748;2023-05-07T00:56:29;5.95;;;5.20;;
6626;SDS011;3349;49.830;8.748;2023-05-07T00:58:57;6.40;;;5.70;;
6626;SDS011;3349;49.830;8.748;2023-05-07T01:01:24;8.50;;;5.45;;
6626;SDS011;3349;49.830;8.748;2023-05-07T01:03:51;6.25;;;5.43;;
6626;SDS011;3349;49.830;8.748;2023-05-07T01:06:19;8.20;;;5.55;;
6626;SDS011;3349;49.830;8.748;2023-05-07T01:08:47;7.82;;;5.30;;
6626;SDS011;3349;49.830;8.748;2023-05-07T01:11:16;6.38;;;4.93;;
6626;SDS011;3349;49.830;8.748;2023-05-07T01:13:45;5.28;;;4.78;;
6626;SDS011;3349;49.830;8.748;2023-05-07T01:16:12;6.85;;;4.90;;
6626;SDS011;3349;49.830;8.748;2023-05-07T01:18:39;6.43;;;4.72;;
6626;SDS011;3349;49.830;8.748;2023-05-07T01:21:06;4.90;;;4.30;;
6626;SDS011;3349;49.830;8.748;2023-05-07T01:23:37;6.72;;;4.60;;
6626;SDS011;3349;49.830;8.748;2023-05-07T01:26:05;6.90;;;4.18;;
6626;SDS011;3349;49.830;8.748;2023-05-07T01:28:32;5.80;;;4.30;;
6626;SDS011;3349;49.830;8.748;2023-05-07T01:31:00;4.82;;;3.95;;
6626;SDS011;3349;49.830;8.748;2023-05-07T01:33:29;8.38;;;4.43;;
6626;SDS011;3349;49.830;8.748;2023-05-07T01:35:58;5.47;;;4.57;;
6626;SDS011;3349;49.830;8.748;2023-05-07T01:38:27;7.97;;;4.82;;
6626;SDS011;3349;49.830;8.748;2023-05-07T01:40:56;6.43;;;4.57;;
6626;SDS011;3349;49.830;8.748;2023-05-07T01:43:23;6.18;;;4.78;;
6626;SDS011;3349;49.830;8.748;2023-05-07T01:45:50;5.90;;;4.30;;
6626;SDS011;3349;49.830;8.748;2023-05-07T01:48:18;5.50;;;4.53;;
6626;SDS011;3349;49.830;8.748;2023-05-07T01:50:45;5.50;;;4.63;;
6626;SDS011;3349;49.830;8.748;2023-05-07T01:53:13;4.93;;;4.30;;
6626;SDS011;3349;49.830;8.748;2023-05-07T01:55:40;7.47;;;5.15;;
6626;SDS011;3349;49.830;8.748;2023-05-07T01:58:08;7.40;;;5.13;;
6626;SDS011;3349;49.830;8.748;2023-05-07T02:00:34;6.78;;;4.60;;
6626;SDS011;3349;49.830;8.748;2023-05-07T02:03:01;6.50;;;4.90;;
6626;SDS011;3349;49.830;8.748;2023-05-07T02:05:28;10.05;;;6.63;;
6626;SDS011;3349;49.830;8.748;2023-05-07T02:07:55;9.20;;;6.13;;
6626;SDS011;3349;49.830;8.748;2023-05-07T02:10:21;11.57;;;6.45;;
6626;SDS011;3349;49.830;8.748;2023-05-07T02:12:48;8.57;;;6.60;;
6626;SDS011;3349;49.830;8.748;2023-05-07T02:15:16;7.55;;;6.43;;
6626;SDS011;3349;49.830;8.748;2023-05-07T02:17:57;5.93;;;4.93;;
6626;SDS011;3349;49.830;8.748;2023-05-07T02:20:25;6.57;;;5.82;;
6626;SDS011;3349;49.830;8.748;2023-05-07T02:22:52;7.82;;;5.35;;
6626;SDS011;3349;49.830;8.748;2023-05-07T02:25:18;7.63;;;5.75;;
6626;SDS011;3349;49.830;8.748;2023-05-07T02:27:45;7.25;;;5.20;;
6626;SDS011;3349;49.830;8.748;2023-05-07T02:30:12;6.72;;;5.13;;
6626;SDS011;3349;49.830;8.748;2023-05-07T02:32:41;8.50;;;5.28;;
6626;SDS011;3349;49.830;8.748;2023-05-07T02:35:08;10.18;;;5.65;;
6626;SDS011;3349;49.830;8.748;2023-05-07T02:37:34;6.93;;;5.45;;
6626;SDS011;3349;49.830;8.748;2023-05-07T02:40:01;8.18;;;5.85;;
6626;SDS011;3349;49.830;8.748;2023-05-07T02:42:29;9.43;;;6.43;;
6626;SDS011;3349;49.830;8.748;2023-05-07T02:44:56;8.35;;;5.75;;
6626;SDS011;3349;49.830;8.748;2023-05-07T02:47:22;8.63;;;5.35;;
6626;SDS011;3349;49.830;8.748;2023-05-07T02:49:53;6.53;;;5.40;;
6626;SDS011;3349;49.830;8.748;2023-05-07T02:52:20;7.00;;;5.28;;
6626;SDS011;3349;49.830;8.748;2023-05-07T02:54:46;7.55;;;6.00;;
6626;SDS011;3349;49.830;8.748;2023-05-07T02:57:13;7.82;;;5.95;;
6626;SDS011;3349;49.830;8.748;2023-05-07T02:59:40;6.60;;;5.57;;
6626;SDS011;3349;49.830;8.748;2023-05-07T03:02:07;9.88;;;5.32;;
6626;SDS011;3349;49.830;8.748;2023-05-07T03:04:34;6.43;;;5.13;;
6626;SDS011;3349;49.830;8.748;2023-05-07T03:07:02;5.80;;;5.20;;
6626;SDS011;3349;49.830;8.748;2023-05-07T03:09:29;6.80;;;4.30;;
6626;SDS011;3349;49.830;8.748;2023-05-07T03:11:56;4.50;;;4.10;;
6626;SDS011;3349;49.830;8.748;2023-05-07T03:14:23;6.00;;;4.68;;
6626;SDS011;3349;49.830;8.748;2023-05-07T03:16:49;6.63;;;4.40;;
6626;SDS011;3349;49.830;8.748;2023-05-07T03:19:16;4.75;;;3.90;;
6626;SDS011;3349;49.830;8.748;2023-05-07T03:21:43;5.63;;;4.70;;
6626;SDS011;3349;49.830;8.748;2023-05-07T03:24:11;5.38;;;3.97;;
6626;SDS011;3349;49.830;8.748;2023-05-07T03:26:38;4.90;;;4.25;;
6626;SDS011;3349;49.830;8.748;2023-05-07T03:29:04;8.45;;;4.13;;
6626;SDS011;3349;49.830;8.748;2023-05-07T03:31:31;6.85;;;3.78;;
6626;SDS011;3349;49.830;8.748;2023-05-07T03:33:58;4.25;;;3.55;;
6626;SDS011;3349;49.830;8.748;2023-05-07T03:36:24;4.25;;;3.55;;
6626;SDS011;3349;49.830;8.748;2023-05-07T03:38:52;5.88;;;4.03;;
6626;SDS011;3349;49.830;8.748;2023-05-07T03:41:20;8.02;;;3.75;;
6626;SDS011;3349;49.830;8.748;2023-05-07T03:43:47;3.55;;;3.20;;
6626;SDS011;3349;49.830;8.748;2023-05-07T03:46:14;3.72;;;3.28;;
6626;SDS011;3349;49.830;8.748;2023-05-07T03:48:41;4.05;;;3.15;;
6626;SDS011;3349;49.830;8.748;2023-05-07T03:51:08;4.43;;;3.42;;
6626;SDS011;3349;49.830;8.748;2023-05-07T03:53:34;4.25;;;3.88;;
6626;SDS011;3349;49.830;8.748;2023-05-07T03:56:01;4.13;;;3.63;;
6626;SDS011;3349;49.830;8.748;2023-05-07T03:58:30;5.45;;;3.45;;
6626;SDS011;3349;49.830;8.748;2023-05-07T04:00:56;5.35;;;3.67;;
6626;SDS011;3349;49.830;8.748;2023-05-07T04:03:23;4.57;;;3.50;;
6626;SDS011;3349;49.830;8.748;2023-05-07T04:05:50;4.45;;;3.40;;
6626;SDS011;3349;49.830;8.748;2023-05-07T04:08:17;4.32;;;3.17;;
6626;SDS011;3349;49.830;8.748;2023-05-07T04:10:43;3.13;;;2.80;;
6626;SDS011;3349;49.830;8.748;2023-05-07T04:13:10;3.88;;;3.42;;
6626;SDS011;3349;49.830;8.748;2023-05-07T04:15:38;5.28;;;3.08;;
6626;SDS011;3349;49.830;8.748;2023-05-07T04:18:05;3.97;;;3.15;;
6626;SDS011;3349;49.830;8.748;2023-05-07T04:20:33;5.13;;;3.25;;
6626;SDS011;3349;49.830;8.748;2023-05-07T04:23:01;5.30;;;3.55;;
6626;SDS011;3349;49.830;8.748;2023-05-07T04:25:28;3.50;;;3.20;;
6626;SDS011;3349;49.830;8.748;2023-05-07T04:27:55;4.38;;;3.50;;
6626;SDS011;3349;49.830;8.748;2023-05-07T04:30:22;3.95;;;3.20;;
6626;SDS011;3349;49.830;8.748;2023-05-07T04:32:50;5.43;;;3.28;;
6626;SDS011;3349;49.830;8.748;2023-05-07T04:35:17;4.63;;;3.25;;
6626;SDS011;3349;49.830;8.748;2023-05-07T04:37:44;4.13;;;3.50;;
6626;SDS011;3349;49.830;8.748;2023-05-07T04:40:11;3.97;;;3.58;;
6626;SDS011;3349;49.830;8.748;2023-05-07T04:42:38;5.15;;;3.40;;
6626;SDS011;3349;49.830;8.748;2023-05-07T04:45:05;5.82;;;3.60;;
6626;SDS011;3349;49.830;8.748;2023-05-07T04:47:33;4.18;;;3.33;;
6626;SDS011;3349;49.830;8.748;2023-05-07T04:50:01;5.97;;;3.58;;
6626;SDS011;3349;49.830;8.748;2023-05-07T04:52:28;4.50;;;3.00;;
6626;SDS011;3349;49.830;8.748;2023-05-07T04:54:56;3.80;;;3.50;;
6626;SDS011;3349;49.830;8.748;2023-05-07T04:57:25;5.18;;;3.70;;
6626;SDS011;3349;49.830;8.748;2023-05-07T04:59:51;6.28;;;3.60;;
6626;SDS011;3349;49.830;8.748;2023-05-07T05:02:18;4.90;;;3.42;;
6626;SDS011;3349;49.830;8.748;2023-05-07T05:04:45;5.75;;;4.00;;
6626;SDS011;3349;49.830;8.748;2023-05-07T05:07:13;4.63;;;3.88;;
6626;SDS011;3349;49.830;8.748;2023-05-07T05:09:40;5.75;;;3.70;;
6626;SDS011;3349;49.830;8.748;2023-05-07T05:12:07;4.18;;;3.70;;
6626;SDS011;3349;49.830;8.748;2023-05-07T05:14:33;4.75;;;3.92;;
6626;SDS011;3349;49.830;8.748;2023-05-07T05:17:00;4.90;;;3.97;;
6626;SDS011;3349;49.830;8.748;2023-05-07T05:19:26;4.22;;;3.53;;
6626;SDS011;3349;49.830;8.748;2023-05-07T05:21:53;6.47;;;3.67;;
6626;SDS011;3349;49.830;8.748;2023-05-07T05:24:21;4.50;;;3.50;;
6626;SDS011;3349;49.830;8.748;2023-05-07T05:26:48;4.28;;;3.78;;
6626;SDS011;3349;49.830;8.748;2023-05-07T05:29:15;8.82;;;4.10;;
6626;SDS011;3349;49.830;8.748;2023-05-07T05:31:42;5.72;;;3.70;;
6626;SDS011;3349;49.830;8.748;2023-05-07T05:34:09;5.63;;;3.80;;
6626;SDS011;3349;49.830;8.748;2023-05-07T05:36:35;3.80;;;3.47;;
6626;SDS011;3349;49.830;8.748;2023-05-07T05:39:02;6.20;;;3.83;;
6626;SDS011;3349;49.830;8.748;2023-05-07T05:41:30;5.85;;;3.40;;
6626;SDS011;3349;49.830;8.748;2023-05-07T05:43:57;4.28;;;3.88;;
6626;SDS011;3349;49.830;8.748;2023-05-07T05:46:24;4.20;;;3.80;;
6626;SDS011;3349;49.830;8.748;2023-05-07T05:48:50;4.22;;;3.65;;
6626;SDS011;3349;49.830;8.748;2023-05-07T05:51:17;4.25;;;3.60;;
6626;SDS011;3349;49.830;8.748;2023-05-07T05:53:44;4.45;;;3.58;;
6626;SDS011;3349;49.830;8.748;2023-05-07T05:56:11;5.13;;;3.67;;
6626;SDS011;3349;49.830;8.748;2023-05-07T05:58:39;4.47;;;3.75;;
6626;SDS011;3349;49.830;8.748;2023-05-07T06:01:06;4.68;;;3.47;;
6626;SDS011;3349;49.830;8.748;2023-05-07T06:03:32;4.07;;;3.40;;
6626;SDS011;3349;49.830;8.748;2023-05-07T06:05:59;4.22;;;3.40;;
6626;SDS011;3349;49.830;8.748;2023-05-07T06:08:28;3.88;;;3.30;;
6626;SDS011;3349;49.830;8.748;2023-05-07T06:10:55;6.90;;;3.78;;
6626;SDS011;3349;49.830;8.748;2023-05-07T06:13:22;6.05;;;3.53;;
6626;SDS011;3349;49.830;8.748;2023-05-07T06:15:50;4.15;;;3.25;;
6626;SDS011;3349;49.830;8.748;2023-05-07T06:18:17;4.40;;;3.25;;
6626;SDS011;3349;49.830;8.748;2023-05-07T06:20:43;3.70;;;3.30;;
6626;SDS011;3349;49.830;8.748;2023-05-07T06:23:10;3.95;;;3.58;;
6626;SDS011;3349;49.830;8.748;2023-05-07T06:25:37;3.88;;;3.33;;
6626;SDS011;3349;49.830;8.748;2023-05-07T06:28:04;3.78;;;3.42;;
6626;SDS011;3349;49.830;8.748;2023-05-07T06:30:33;5.68;;;3.45;;
6626;SDS011;3349;49.830;8.748;2023-05-07T06:33:01;3.50;;;3.20;;
6626;SDS011;3349;49.830;8.748;2023-05-07T06:35:28;7.70;;;3.90;;
6626;SDS011;3349;49.830;8.748;2023-05-07T06:37:55;4.82;;;3.45;;
6626;SDS011;3349;49.830;8.748;2023-05-07T06:40:22;4.00;;;2.97;;
6626;SDS011;3349;49.830;8.748;2023-05-07T06:42:48;6.80;;;3.17;;
6626;SDS011;3349;49.830;8.748;2023-05-07T06:45:15;3.65;;;3.25;;
6626;SDS011;3349;49.830;8.748;2023-05-07T06:47:42;5.65;;;3.42;;
6626;SDS011;3349;49.830;8.748;2023-05-07T06:50:10;3.30;;;2.97;;
6626;SDS011;3349;49.830;8.748;2023-05-07T06:52:37;3.58;;;3.17;;
6626;SDS011;3349;49.830;8.748;2023-05-07T06:55:04;4.55;;;3.15;;
6626;SDS011;3349;49.830;8.748;2023-05-07T06:57:32;4.25;;;2.97;;
6626;SDS011;3349;49.830;8.748;2023-05-07T06:59:59;3.22;;;2.90;;
6626;SDS011;3349;49.830;8.748;2023-05-07T07:02:25;3.50;;;3.00;;
6626;SDS011;3349;49.830;8.748;2023-05-07T07:04:52;5.13;;;3.08;;
6626;SDS011;3349;49.830;8.748;2023-05-07T07:07:20;3.20;;;2.90;;
6626;SDS011;3349;49.830;8.748;2023-05-07T07:09:47;3.30;;;3.00;;
6626;SDS011;3349;49.830;8.748;2023-05-07T07:12:15;3.38;;;3.08;;
6626;SDS011;3349;49.830;8.748;2023-05-07T07:14:42;3.63;;;3.33;;
6626;SDS011;3349;49.830;8.748;2023-05-07T07:17:08;3.80;;;3.22;;
6626;SDS011;3349;49.830;8.748;2023-05-07T07:19:35;4.80;;;3.22;;
6626;SDS011;3349;49.830;8.748;2023-05-07T07:22:03;4.00;;;3.60;;
6626;SDS011;3349;49.830;8.748;2023-05-07T07:24:31;4.68;;;3.20;;
6626;SDS011;3349;49.830;8.748;2023-05-07T07:26:58;3.42;;;3.13;;
6626;SDS011;3349;49.830;8.748;2023-05-07T07:29:25;6.82;;;3.47;;
6626;SDS011;3349;49.830;8.748;2023-05-07T07:31:52;3.85;;;3.47;;
6626;SDS011;3349;49.830;8.748;2023-05-07T07:34:19;6.90;;;3.80;;
6626;SDS011;3349;49.830;8.748;2023-05-07T07:36:45;3.70;;;3.30;;
6626;SDS011;3349;49.830;8.748;2023-05-07T07:39:12;3.97;;;3.58;;
6626;SDS011;3349;49.830;8.748;2023-05-07T07:41:41;3.95;;;3.65;;
6626;SDS011;3349;49.830;8.748;2023-05-07T07:44:08;4.78;;;3.67;;
6626;SDS011;3349;49.830;8.748;2023-05-07T07:46:37;4.47;;;3.55;;
6626;SDS011;3349;49.830;8.748;2023-05-07T07:49:04;5.07;;;3.70;;
6626;SDS011;3349;49.830;8.748;2023-05-07T07:51:31;3.72;;;3.35;;
6626;SDS011;3349;49.830;8.748;2023-05-07T07:53:58;4.13;;;3.70;;
6626;SDS011;3349;49.830;8.748;2023-05-07T07:56:24;4.80;;;3.80;;
6626;SDS011;3349;49.830;8.748;2023-05-07T07:58:52;4.15;;;3.75;;
6626;SDS011;3349;49.830;8.748;2023-05-07T08:01:19;4.35;;;3.95;;
6626;SDS011;3349;49.830;8.748;2023-05-07T08:03:46;4.70;;;3.70;;
6626;SDS011;3349;49.830;8.748;2023-05-07T08:06:12;4.40;;;3.75;;
6626;SDS011;3349;49.830;8.748;2023-05-07T08:08:39;6.05;;;3.95;;
6626;SDS011;3349;49.830;8.748;2023-05-07T08:11:06;4.07;;;3.70;;
6626;SDS011;3349;49.830;8.748;2023-05-07T08:13:33;4.50;;;4.10;;
6626;SDS011;3349;49.830;8.748;2023-05-07T08:16:01;4.40;;;4.00;;
6626;SDS011;3349;49.830;8.748;2023-05-07T08:18:27;4.47;;;3.85;;
6626;SDS011;3349;49.830;8.748;2023-05-07T08:20:54;4.28;;;3.92;;
6626;SDS011;3349;49.830;8.748;2023-05-07T08:23:21;4.30;;;3.95;;
6626;SDS011;3349;49.830;8.748;2023-05-07T08:25:48;4.32;;;3.92;;
6626;SDS011;3349;49.830;8.748;2023-05-07T08:28:14;6.10;;;4.45;;
6626;SDS011;3349;49.830;8.748;2023-05-07T08:30:42;4.30;;;3.90;;
6626;SDS011;3349;49.830;8.748;2023-05-07T08:33:10;5.05;;;3.97;;
6626;SDS011;3349;49.830;8.748;2023-05-07T08:35:37;4.40;;;4.00;;
6626;SDS011;3349;49.830;8.748;2023-05-07T08:38:03;4.78;;;4.32;;
6626;SDS011;3349;49.830;8.748;2023-05-07T08:40:30;5.32;;;4.32;;
6626;SDS011;3349;49.830;8.748;2023-05-07T08:43:02;4.60;;;4.20;;
6626;SDS011;3349;49.830;8.748;2023-05-07T08:45:31;4.55;;;4.13;;
6626;SDS011;3349;49.830;8.748;2023-05-07T08:48:01;5.18;;;3.97;;
6626;SDS011;3349;49.830;8.748;2023-05-07T08:50:30;5.88;;;4.13;;
6626;SDS011;3349;49.830;8.748;2023-05-07T08:52:57;4.55;;;4.03;;
6626;SDS011;3349;49.830;8.748;2023-05-07T08:55:25;5.05;;;4.07;;
6626;SDS011;3349;49.830;8.748;2023-05-07T08:57:51;5.18;;;4.70;;
6626;SDS011;3349;49.830;8.748;2023-05-07T09:00:18;5.18;;;4.68;;
6626;SDS011;3349;49.830;8.748;2023-05-07T09:02:45;7.05;;;4.30;;
6626;SDS011;3349;49.830;8.748;2023-05-07T09:05:12;5.50;;;4.43;;
6626;SDS011;3349;49.830;8.748;2023-05-07T09:07:40;5.15;;;4.72;;
6626;SDS011;3349;49.830;8.748;2023-05-07T09:10:07;4.53;;;4.05;;
6626;SDS011;3349;49.830;8.748;2023-05-07T09:12:34;7.10;;;4.63;;
6626;SDS011;3349;49.830;8.748;2023-05-07T09:15:01;4.90;;;4.50;;
6626;SDS011;3349;49.830;8.748;2023-05-07T09:17:28;4.82;;;4.38;;
6626;SDS011;3349;49.830;8.748;2023-05-07T09:19:55;5.25;;;4.32;;
6626;SDS011;3349;49.830;8.748;2023-05-07T09:22:21;5.20;;;4.72;;
6626;SDS011;3349;49.830;8.748;2023-05-07T09:24:50;5.22;;;4.72;;
6626;SDS011;3349;49.830;8.748;2023-05-07T09:27:17;5.13;;;4.63;;
6626;SDS011;3349;49.830;8.748;2023-05-07T09:29:44;5.60;;;4.50;;
6626;SDS011;3349;49.830;8.748;2023-05-07T09:32:11;5.05;;;4.55;;
6626;SDS011;3349;49.830;8.748;2023-05-07T09:34:38;4.75;;;4.32;;
6626;SDS011;3349;49.830;8.748;2023-05-07T09:37:05;4.90;;;4.50;;
6626;SDS011;3349;49.830;8.748;2023-05-07T09:39:38;5.53;;;4.97;;
6626;SDS011;3349;49.830;8.748;2023-05-07T09:42:07;6.15;;;5.65;;
6626;SDS011;3349;49.830;8.748;2023-05-07T09:44:35;5.63;;;5.13;;
6626;SDS011;3349;49.830;8.748;2023-05-07T09:47:03;5.63;;;4.60;;
6626;SDS011;3349;49.830;8.748;2023-05-07T09:49:33;4.78;;;4.45;;
6626;SDS011;3349;49.830;8.748;2023-05-07T09:52:02;4.82;;;4.43;;
6626;SDS011;3349;49.830;8.748;2023-05-07T09:54:31;6.00;;;4.50;;
6626;SDS011;3349;49.830;8.748;2023-05-07T09:56:58;4.97;;;4.57;;
6626;SDS011;3349;49.830;8.748;2023-05-07T09:59:28;5.15;;;4.72;;
6626;SDS011;3349;49.830;8.748;2023-05-07T10:01:57;4.60;;;4.20;;
6626;SDS011;3349;49.830;8.748;2023-05-07T10:04:25;5.15;;;4.65;;
6626;SDS011;3349;49.830;8.748;2023-05-07T10:06:52;5.10;;;4.60;;
6626;SDS011;3349;49.830;8.748;2023-05-07T10:09:20;4.82;;;4.40;;
6626;SDS011;3349;49.830;8.748;2023-05-07T10:11:48;6.75;;;4.30;;
6626;SDS011;3349;49.830;8.748;2023-05-07T10:14:15;5.30;;;4.32;;
6626;SDS011;3349;49.830;8.748;2023-05-07T10:16:44;5.68;;;4.93;;
6626;SDS011;3349;49.830;8.748;2023-05-07T10:19:11;4.88;;;4.35;;
6626;SDS011;3349;49.830;8.748;2023-05-07T10:21:38;5.28;;;4.78;;
6626;SDS011;3349;49.830;8.748;2023-05-07T10:24:10;5.30;;;4.80;;
6626;SDS011;3349;49.830;8.748;2023-05-07T10:26:47;5.32;;;4.82;;
6626;SDS011;3349;49.830;8.748;2023-05-07T10:29:18;5.63;;;5.13;;
6626;SDS011;3349;49.830;8.748;2023-05-07T10:31:57;6.55;;;4.82;;
6626;SDS011;3349;49.830;8.748;2023-05-07T10:34:32;6.07;;;4.40;;
6626;SDS011;3349;49.830;8.748;2023-05-07T10:37:03;5.47;;;4.80;;
6626;SDS011;3349;49.830;8.748;2023-05-07T10:39:30;6.18;;;4.70;;
6626;SDS011;3349;49.830;8.748;2023-05-07T10:41:57;5.00;;;4.50;;
6626;SDS011;3349;49.830;8.748;2023-05-07T10:44:34;5.03;;;4.57;;
6626;SDS011;3349;49.830;8.748;2023-05-07T10:47:10;5.70;;;5.20;;
6626;SDS011;3349;49.830;8.748;2023-05-07T10:50:19;4.75;;;4.35;;
6626;SDS011;3349;49.830;8.748;2023-05-07T10:58:52;5.90;;;4.85;;
6626;SDS011;3349;49.830;8.748;2023-05-07T11:04:17;5.13;;;4.57;;
6626;SDS011;3349;49.830;8.748;2023-05-07T11:10:00;5.43;;;4.93;;
6626;SDS011;3349;49.830;8.748;2023-05-07T11:12:46;5.63;;;5.13;;
6626;SDS011;3349;49.830;8.748;2023-05-07T11:15:14;5.43;;;5.03;;
6626;SDS011;3349;49.830;8.748;2023-05-07T11:17:59;5.20;;;4.80;;
6626;SDS011;3349;49.830;8.748;2023-05-07T11:23:23;4.90;;;4.45;;
6626;SDS011;3349;49.830;8.748;2023-05-07T11:26:45;4.80;;;4.50;;
6626;SDS011;3349;49.830;8.748;2023-05-07T11:29:14;5.10;;;4.63;;
6626;SDS011;3349;49.830;8.748;2023-05-07T11:31:41;4.97;;;4.53;;
6626;SDS011;3349;49.830;8.748;2023-05-07T11:34:08;5.22;;;4.82;;
6626;SDS011;3349;49.830;8.748;2023-05-07T11:36:36;5.40;;;5.00;;
6626;SDS011;3349;49.830;8.748;2023-05-07T11:39:22;4.65;;;4.32;;
6626;SDS011;3349;49.830;8.748;2023-05-07T11:41:52;5.25;;;4.85;;
6626;SDS011;3349;49.830;8.748;2023-05-07T11:44:18;5.15;;;4.65;;
6626;SDS011;3349;49.830;8.748;2023-05-07T11:46:45;5.35;;;4.95;;
6626;SDS011;3349;49.830;8.748;2023-05-07T11:49:12;4.43;;;4.13;;
6626;SDS011;3349;49.830;8.748;2023-05-07T11:51:39;4.80;;;4.50;;
6626;SDS011;3349;49.830;8.748;2023-05-07T11:54:07;4.88;;;4.38;;
6626;SDS011;3349;49.830;8.748;2023-05-07T11:56:36;4.97;;;4.57;;
6626;SDS011;3349;49.830;8.748;2023-05-07T11:59:05;4.78;;;3.95;;
6626;SDS011;3349;49.830;8.748;2023-05-07T12:01:32;5.10;;;4.70;;
6626;SDS011;3349;49.830;8.748;2023-05-07T12:04:02;4.90;;;4.40;;
6626;SDS011;3349;49.830;8.748;2023-05-07T12:06:30;4.63;;;4.22;;
6626;SDS011;3349;49.830;8.748;2023-05-07T12:08:56;4.40;;;4.10;;
6626;SDS011;3349;49.830;8.748;2023-05-07T12:11:24;4.30;;;3.90;;
6626;SDS011;3349;49.830;8.748;2023-05-07T12:13:51;4.50;;;4.10;;
6626;SDS011;3349;49.830;8.748;2023-05-07T12:16:21;4.45;;;4.15;;
6626;SDS011;3349;49.830;8.748;2023-05-07T12:18:49;4.25;;;3.88;;
6626;SDS011;3349;49.830;8.748;2023-05-07T12:21:17;4.72;;;4.32;;
6626;SDS011;3349;49.830;8.748;2023-05-07T12:23:44;4.25;;;3.95;;
6626;SDS011;3349;49.830;8.748;2023-05-07T12:26:11;4.70;;;4.30;;
6626;SDS011;3349;49.830;8.748;2023-05-07T12:28:38;5.43;;;4.25;;
6626;SDS011;3349;49.830;8.748;2023-05-07T12:31:05;4.55;;;3.95;;
6626;SDS011;3349;49.830;8.748;2023-05-07T12:33:34;4.43;;;4.05;;
6626;SDS011;3349;49.830;8.748;2023-05-07T12:36:05;4.45;;;4.13;;
6626;SDS011;3349;49.830;8.748;2023-05-07T12:38:37;4.50;;;4.18;;
6626;SDS011;3349;49.830;8.748;2023-05-07T12:41:05;4.10;;;3.80;;
6626;SDS011;3349;49.830;8.748;2023-05-07T12:43:33;4.07;;;3.72;;
6626;SDS011;3349;49.830;8.748;2023-05-07T12:46:00;4.28;;;3.88;;
6626;SDS011;3349;49.830;8.748;2023-05-07T12:48:29;4.05;;;3.75;;
6626;SDS011;3349;49.830;8.748;2023-05-07T12:50:58;4.18;;;3.88;;
6626;SDS011;3349;49.830;8.748;2023-05-07T12:53:26;5.60;;;4.07;;
6626;SDS011;3349;49.830;8.748;2023-05-07T12:55:56;3.70;;;3.40;;
6626;SDS011;3349;49.830;8.748;2023-05-07T12:58:24;3.90;;;3.60;;
6626;SDS011;3349;49.830;8.748;2023-05-07T13:00:53;3.95;;;3.58;;
6626;SDS011;3349;49.830;8.748;2023-05-07T13:03:24;3.55;;;3.25;;
6626;SDS011;3349;49.830;8.748;2023-05-07T13:05:51;3.83;;;3.42;;
6626;SDS011;3349;49.830;8.748;2023-05-07T13:08:27;4.35;;;3.25;;
6626;SDS011;3349;49.830;8.748;2023-05-07T13:10:57;3.60;;;3.30;;
6626;SDS011;3349;49.830;8.748;2023-05-07T13:13:24;4.15;;;3.47;;
6626;SDS011;3349;49.830;8.748;2023-05-07T13:15:51;3.53;;;3.22;;
6626;SDS011;3349;49.830;8.748;2023-05-07T13:18:18;3.88;;;3.08;;
6626;SDS011;3349;49.830;8.748;2023-05-07T13:20:44;4.88;;;3.40;;
6626;SDS011;3349;49.830;8.748;2023-05-07T13:23:11;3.45;;;3.17;;
6626;SDS011;3349;49.830;8.748;2023-05-07T13:25:39;3.53;;;3.22;;
6626;SDS011;3349;49.830;8.748;2023-05-07T13:28:06;3.83;;;3.40;;
6626;SDS011;3349;49.830;8.748;2023-05-07T13:30:32;3.35;;;3.05;;
6626;SDS011;3349;49.830;8.748;2023-05-07T13:32:59;4.32;;;3.20;;
6626;SDS011;3349;49.830;8.748;2023-05-07T13:35:26;4.53;;;3.40;;
6626;SDS011;3349;49.830;8.748;2023-05-07T13:37:53;4.43;;;3.13;;
6626;SDS011;3349;49.830;8.748;2023-05-07T13:40:20;3.50;;;3.20;;
6626;SDS011;3349;49.830;8.748;2023-05-07T13:42:49;3.53;;;3.08;;
6626;SDS011;3349;49.830;8.748;2023-05-07T13:45:16;3.55;;;3.20;;
6626;SDS011;3349;49.830;8.748;2023-05-07T13:47:42;3.78;;;3.47;;
6626;SDS011;3349;49.830;8.748;2023-05-07T13:50:09;3.95;;;3.20;;
6626;SDS011;3349;49.830;8.748;2023-05-07T13:52:38;3.47;;;3.17;;
6626;SDS011;3349;49.830;8.748;2023-05-07T13:55:06;4.00;;;2.60;;
6626;SDS011;3349;49.830;8.748;2023-05-07T13:57:33;3.58;;;3.28;;
6626;SDS011;3349;49.830;8.748;2023-05-07T14:00:01;3.42;;;3.13;;
6626;SDS011;3349;49.830;8.748;2023-05-07T14:02:29;3.00;;;2.78;;
6626;SDS011;3349;49.830;8.748;2023-05-07T14:04:56;3.45;;;3.15;;
6626;SDS011;3349;49.830;8.748;2023-05-07T14:07:23;3.00;;;2.80;;
6626;SDS011;3349;49.830;8.748;2023-05-07T14:09:50;4.45;;;3.80;;
6626;SDS011;3349;49.830;8.748;2023-05-07T14:12:16;3.55;;;3.20;;
6626;SDS011;3349;49.830;8.748;2023-05-07T14:14:43;3.20;;;2.90;;
6626;SDS011;3349;49.830;8.748;2023-05-07T14:17:11;3.40;;;3.10;;
6626;SDS011;3349;49.830;8.748;2023-05-07T14:19:38;3.00;;;2.80;;
6626;SDS011;3349;49.830;8.748;2023-05-07T14:22:05;3.85;;;2.88;;
6626;SDS011;3349;49.830;8.748;2023-05-07T14:24:32;4.25;;;3.20;;
6626;SDS011;3349;49.830;8.748;2023-05-07T14:26:59;4.20;;;3.00;;
6626;SDS011;3349;49.830;8.748;2023-05-07T14:29:27;3.92;;;3.20;;
6626;SDS011;3349;49.830;8.748;2023-05-07T14:31:54;3.58;;;3.28;;
6626;SDS011;3349;49.830;8.748;2023-05-07T14:34:22;3.53;;;3.22;;
6626;SDS011;3349;49.830;8.748;2023-05-07T14:36:49;3.28;;;2.97;;
6626;SDS011;3349;49.830;8.748;2023-05-07T14:39:16;3.55;;;3.25;;
6626;SDS011;3349;49.830;8.748;2023-05-07T14:41:43;3.35;;;3.03;;
6626;SDS011;3349;49.830;8.748;2023-05-07T14:44:10;3.95;;;3.50;;
6626;SDS011;3349;49.830;8.748;2023-05-07T14:46:36;3.65;;;3.35;;
6626;SDS011;3349;49.830;8.748;2023-05-07T14:49:03;3.35;;;3.05;;
6626;SDS011;3349;49.830;8.748;2023-05-07T14:51:32;4.00;;;3.60;;
6626;SDS011;3349;49.830;8.748;2023-05-07T14:53:59;4.38;;;3.97;;
6626;SDS011;3349;49.830;8.748;2023-05-07T14:56:26;3.78;;;3.30;;
6626;SDS011;3349;49.830;8.748;2023-05-07T14:58:53;4.50;;;3.38;;
6626;SDS011;3349;49.830;8.748;2023-05-07T15:01:20;3.53;;;3.22;;
6626;SDS011;3349;49.830;8.748;2023-05-07T15:03:47;3.78;;;3.47;;
6626;SDS011;3349;49.830;8.748;2023-05-07T15:06:14;3.83;;;3.30;;
6626;SDS011;3349;49.830;8.748;2023-05-07T15:08:42;3.83;;;3.42;;
6626;SDS011;3349;49.830;8.748;2023-05-07T15:11:09;3.60;;;3.30;;
6626;SDS011;3349;49.830;8.748;2023-05-07T15:13:35;5.80;;;3.95;;
6626;SDS011;3349;49.830;8.748;2023-05-07T15:16:02;4.32;;;3.92;;
6626;SDS011;3349;49.830;8.748;2023-05-07T15:18:29;5.45;;;3.72;;
6626;SDS011;3349;49.830;8.748;2023-05-07T15:20:55;4.80;;;3.40;;
6626;SDS011;3349;49.830;8.748;2023-05-07T15:23:23;4.40;;;3.30;;
6626;SDS011;3349;49.830;8.748;2023-05-07T15:25:51;3.88;;;3.47;;
6626;SDS011;3349;49.830;8.748;2023-05-07T15:28:17;3.83;;;3.50;;
6626;SDS011;3349;49.830;8.748;2023-05-07T15:30:44;3.67;;;3.33;;
6626;SDS011;3349;49.830;8.748;2023-05-07T15:33:11;3.92;;;3.53;;